Airfield :
LOGIN :

Register | Disclaimer

   EN    FR    IT 

 










Legend :    VFR   Marginal VFR   IFR   Intensive IFR   Very Intensive IFR
Visi :
Ceiling :
>= 8 km
>= 3000ft
5 to 8 km
1000 to 3000 ft
1500m to 5 km
500 to 1000 ft
800 to 1500m
200 to 500 ft
< 800m
< 200 ft
Symbols :   Thunderstorms  Fog  Heavy snow  Heavy precipitations  Wind > 20 kt
SIGMETs :     Misc.  Thunderstorms  Icing  Turbulence  Mountain Waves  Volcanic Ashes






- Airport Elevation : 266 ft
- IATA code : MMK


ULMM - Murmansk

CURRENT METAR :
  • 260500Z 25002MPS 210V290 9999 BKN048 07/M02 Q1025 R31/120070 NOSIG RMK QFE761

EXPIRED METARs :
  • 260430Z 25003MPS 200V280 9999 BKN045 05/M02 Q1026 R31/120070 NOSIG RMK QFE762
  • 260400Z 24002MPS 210V280 9999 BKN044 05/M02 Q1026 R31/120070 NOSIG RMK QFE762
  • 260330Z 25002MPS CAVOK 05/M02 Q1026 R31/120070 NOSIG RMK QFE762
  • 260300Z 25003MPS CAVOK 06/M03 Q1026 R31/120070 NOSIG RMK QFE762
  • 260230Z 25002MPS 210V290 CAVOK 03/M02 Q1027 R31/120070 NOSIG RMK QFE763
  • 260200Z 23001MPS 9999 BKN047 04/M03 Q1027 R31/120070 NOSIG RMK QFE763
  • 260130Z 21001MPS 9999 BKN042 03/M03 Q1027 R31/120070 NOSIG RMK QFE763
  • 260100Z 00000MPS 9999 BKN040 03/M03 Q1027 R31/120070 NOSIG RMK QFE763
  • 260030Z 19001MPS 9999 BKN040 03/M03 Q1027 R31/120070 NOSIG RMK QFE763

TAF TAF ULMM
Valid from the 26 at 03:00 until the 27 at 03:00 UTC


260150Z 2603/2703 24003G08MPS 9999 SCT030CB
TEMPO 2607/2616 28005G11MPS
BECMG 2616/2618 28003G08MPS



MET'MAP, your aeronautical weather chart ! - Copyright ORBIFLY December 2007 - Disclaimer

ORBIFLY MET'MAP TEAM :

Programming & Development : Alexandra Zaïnal
Original concept : Baudouin d'Aumeries
Technical & hardware support : Manuel Goepfert
Assistance : Marc-Olivier Méhu




SOURCES & CREDITS :

   NOAA